createdAt,value
2018-08-07T00:00:16.032Z,1010.15
2018-08-07T00:01:16.060Z,1010.11
2018-08-07T00:02:16.107Z,1010.08
2018-08-07T00:03:16.110Z,1010.11
2018-08-07T00:04:16.122Z,1010.08
2018-08-07T00:05:16.149Z,1010.09
2018-08-07T00:06:16.175Z,1010.10
2018-08-07T00:07:16.188Z,1010.10
2018-08-07T00:08:16.214Z,1010.05
2018-08-07T00:09:16.240Z,1010.08
2018-08-07T00:10:16.265Z,1010.04
2018-08-07T00:11:16.278Z,1010.08
2018-08-07T00:12:16.317Z,1010.03
2018-08-07T00:13:16.331Z,1010.03
2018-08-07T00:14:16.358Z,1010.04
2018-08-07T00:15:16.370Z,1010.03
2018-08-07T00:16:16.396Z,1010.02
2018-08-07T00:17:16.422Z,1010.03
2018-08-07T00:18:16.449Z,1010.00
2018-08-07T00:19:16.473Z,1009.99
2018-08-07T00:20:16.487Z,1009.97
2018-08-07T00:21:16.513Z,1010.00
2018-08-07T00:22:16.527Z,1010.00
2018-08-07T00:23:16.554Z,1010.00
2018-08-07T00:24:16.579Z,1009.98
2018-08-07T00:25:16.606Z,1009.98
2018-08-07T00:26:16.618Z,1009.99
2018-08-07T00:27:16.644Z,1009.96
2018-08-07T00:28:16.670Z,1009.97
2018-08-07T00:29:16.695Z,1009.94
2018-08-07T00:30:16.719Z,1009.94
2018-08-07T00:31:16.738Z,1009.95
2018-08-07T00:32:16.761Z,1009.93
2018-08-07T00:33:16.774Z,1009.93
2018-08-07T00:34:16.805Z,1009.93
2018-08-07T00:35:16.826Z,1009.91
2018-08-07T00:36:16.852Z,1009.92
2018-08-07T00:37:16.867Z,1009.89
2018-08-07T00:38:16.891Z,1009.83
2018-08-07T00:39:16.936Z,1009.87
2018-08-07T00:40:16.932Z,1009.86
2018-08-07T00:41:16.957Z,1009.85
2018-08-07T00:42:16.984Z,1009.82
2018-08-07T00:43:17.011Z,1009.85
2018-08-07T00:44:17.023Z,1009.85
2018-08-07T00:45:17.052Z,1009.82
2018-08-07T00:46:17.075Z,1009.83
2018-08-07T00:47:17.089Z,1009.82
2018-08-07T00:48:17.113Z,1009.81
2018-08-07T00:49:17.140Z,1009.75
2018-08-07T00:50:17.165Z,1009.77
2018-08-07T00:51:17.184Z,1009.75
2018-08-07T00:52:17.208Z,1009.76
2018-08-07T00:53:17.232Z,1009.72
2018-08-07T00:54:17.247Z,1009.70
2018-08-07T00:55:17.283Z,1009.72
2018-08-07T00:56:17.298Z,1009.69
2018-08-07T00:57:17.384Z,1009.72
2018-08-07T00:58:17.336Z,1009.71
2018-08-07T00:59:17.362Z,1009.66
2018-08-07T01:00:17.389Z,1009.68
2018-08-07T01:01:17.401Z,1009.61
2018-08-07T01:02:17.440Z,1009.63
2018-08-07T01:03:17.452Z,1009.61
2018-08-07T01:04:17.479Z,1009.59
2018-08-07T01:05:17.492Z,1009.59
2018-08-07T01:06:17.518Z,1009.55
2018-08-07T01:07:17.544Z,1009.57
2018-08-07T01:08:17.559Z,1009.52
2018-08-07T01:09:17.583Z,1009.51
2018-08-07T01:10:17.609Z,1009.52
2018-08-07T01:11:17.634Z,1009.53
2018-08-07T01:12:17.648Z,1009.48
2018-08-07T01:13:17.677Z,1009.47
2018-08-07T01:14:17.702Z,1009.44
2018-08-07T01:15:17.714Z,1009.44
2018-08-07T01:16:17.740Z,1009.41
2018-08-07T01:17:17.767Z,1009.43
2018-08-07T01:18:17.791Z,1009.41
2018-08-07T01:19:17.807Z,1009.38
2018-08-07T01:20:17.832Z,1009.42
2018-08-07T01:21:17.858Z,1009.40
2018-08-07T01:22:17.871Z,1009.36
2018-08-07T01:23:17.910Z,1009.36
2018-08-07T01:24:17.926Z,1009.39
2018-08-07T01:25:17.938Z,1009.37
2018-08-07T01:26:17.963Z,1009.34
2018-08-07T01:27:17.989Z,1009.33
2018-08-07T01:28:18.015Z,1009.34
2018-08-07T01:29:18.028Z,1009.37
2018-08-07T01:30:18.067Z,1009.34
2018-08-07T01:31:18.079Z,1009.32
2018-08-07T01:32:18.095Z,1009.33
2018-08-07T01:33:18.120Z,1009.31
2018-08-07T01:34:18.145Z,1009.30
2018-08-07T01:35:18.158Z,1009.29
2018-08-07T01:36:18.185Z,1009.26
2018-08-07T01:37:18.213Z,1009.31
2018-08-07T01:38:18.250Z,1009.29
2018-08-07T01:39:18.251Z,1009.28
2018-08-07T01:40:18.276Z,1009.30
2018-08-07T01:41:18.302Z,1009.26
2018-08-07T01:42:18.315Z,1009.27
2018-08-07T01:43:18.341Z,1009.28
2018-08-07T01:44:18.368Z,1009.29
2018-08-07T01:45:18.381Z,1009.27
2018-08-07T01:46:18.407Z,1009.27
2018-08-07T01:47:18.437Z,1009.26
2018-08-07T01:48:18.446Z,1009.24
2018-08-07T01:49:18.472Z,1009.28
2018-08-07T01:50:18.501Z,1009.24
2018-08-07T01:51:18.524Z,1009.23
2018-08-07T01:52:18.541Z,1009.27
2018-08-07T01:53:18.565Z,1009.21
2018-08-07T01:54:18.591Z,1009.20
2018-08-07T01:55:18.602Z,1009.19
2018-08-07T01:56:18.629Z,1009.21
2018-08-07T01:57:18.655Z,1009.21
2018-08-07T01:58:18.668Z,1009.23
2018-08-07T01:59:18.695Z,1009.22
2018-08-07T02:00:18.723Z,1009.25
2018-08-07T02:01:18.735Z,1009.22
2018-08-07T02:02:18.759Z,1009.18
2018-08-07T02:03:18.785Z,1009.18
2018-08-07T02:04:18.811Z,1009.18
2018-08-07T02:05:18.825Z,1009.19
2018-08-07T02:06:18.851Z,1009.19
2018-08-07T02:07:18.876Z,1009.18
2018-08-07T02:08:18.890Z,1009.19
2018-08-07T02:09:18.916Z,1009.18
2018-08-07T02:10:18.941Z,1009.20
2018-08-07T02:11:18.957Z,1009.16
2018-08-07T02:12:18.982Z,1009.17
2018-08-07T02:13:19.008Z,1009.16
2018-08-07T02:14:19.022Z,1009.17
2018-08-07T02:15:19.047Z,1009.13
2018-08-07T02:16:19.072Z,1009.15
2018-08-07T02:17:19.087Z,1009.14
2018-08-07T02:18:19.113Z,1009.12
2018-08-07T02:19:19.139Z,1009.15
2018-08-07T02:20:19.167Z,1009.11
2018-08-07T02:21:19.178Z,1009.16
2018-08-07T02:22:19.217Z,1009.08
2018-08-07T02:23:19.229Z,1009.11
2018-08-07T02:24:19.245Z,1009.07
2018-08-07T02:25:19.269Z,1009.09
2018-08-07T02:26:19.295Z,1009.06
2018-08-07T02:27:19.311Z,1009.08
2018-08-07T02:28:19.336Z,1009.11
2018-08-07T02:29:19.373Z,1009.08
2018-08-07T02:30:19.375Z,1009.05
2018-08-07T02:31:19.400Z,1009.04
2018-08-07T02:32:19.426Z,1009.05
2018-08-07T02:33:19.438Z,1009.03
2018-08-07T02:34:19.466Z,1009.05
2018-08-07T02:35:19.506Z,1009.04
2018-08-07T02:36:19.507Z,1009.09
2018-08-07T02:37:19.530Z,1009.10
2018-08-07T02:38:19.556Z,1009.10
2018-08-07T02:39:19.569Z,1009.08
2018-08-07T02:40:19.594Z,1009.03
2018-08-07T02:41:19.621Z,1009.07
2018-08-07T02:42:19.637Z,1009.03
2018-08-07T02:43:19.661Z,1009.07
2018-08-07T02:44:19.687Z,1009.01
2018-08-07T02:45:19.700Z,1009.01
2018-08-07T02:46:19.726Z,1009.03
2018-08-07T02:47:19.752Z,1008.98
2018-08-07T02:48:19.766Z,1008.99
2018-08-07T02:49:19.794Z,1008.97
2018-08-07T02:50:19.817Z,1008.97
2018-08-07T02:51:19.831Z,1008.99
2018-08-07T02:52:19.858Z,1008.98
2018-08-07T02:53:19.884Z,1008.92
2018-08-07T02:54:19.898Z,1008.88
2018-08-07T02:55:19.923Z,1008.92
2018-08-07T02:56:19.949Z,1008.90
2018-08-07T02:57:19.962Z,1008.88
2018-08-07T02:58:19.991Z,1008.92
2018-08-07T02:59:20.013Z,1008.89
2018-08-07T03:00:20.041Z,1008.86
2018-08-07T03:01:20.054Z,1008.85
2018-08-07T03:02:20.080Z,1008.82
2018-08-07T03:03:20.092Z,1008.82
2018-08-07T03:04:20.118Z,1008.83
2018-08-07T03:05:20.151Z,1008.83
2018-08-07T03:06:20.159Z,1008.83
2018-08-07T03:07:20.185Z,1008.80
2018-08-07T03:08:20.211Z,1008.81
2018-08-07T03:09:20.225Z,1008.83
2018-08-07T03:10:20.249Z,1008.84
2018-08-07T03:11:20.276Z,1008.78
2018-08-07T03:12:20.289Z,1008.78
2018-08-07T03:13:20.315Z,1008.82
2018-08-07T03:14:20.347Z,1008.84
2018-08-07T03:15:20.363Z,1008.77
2018-08-07T03:16:20.381Z,1008.83
2018-08-07T03:17:20.407Z,1008.79
2018-08-07T03:18:20.432Z,1008.78
2018-08-07T03:19:20.447Z,1008.82
2018-08-07T03:20:20.473Z,1008.79
2018-08-07T03:21:20.485Z,1008.76
2018-08-07T03:22:20.510Z,1008.77
2018-08-07T03:23:20.536Z,1008.79
2018-08-07T03:24:20.556Z,1008.79
2018-08-07T03:25:20.578Z,1008.77
2018-08-07T03:26:20.602Z,1008.83
2018-08-07T03:27:20.615Z,1008.80
2018-08-07T03:28:20.641Z,1008.79
2018-08-07T03:29:20.667Z,1008.83
2018-08-07T03:30:20.682Z,1008.80
2018-08-07T03:31:20.707Z,1008.79
2018-08-07T03:32:20.733Z,1008.81
2018-08-07T03:33:20.759Z,1008.76
2018-08-07T03:34:20.772Z,1008.79
2018-08-07T03:35:20.797Z,1008.77
2018-08-07T03:36:20.812Z,1008.77
2018-08-07T03:37:20.839Z,1008.79
2018-08-07T03:38:20.864Z,1008.82
2018-08-07T03:39:20.877Z,1008.82
2018-08-07T03:40:20.922Z,1008.84
2018-08-07T03:41:20.934Z,1008.84
2018-08-07T03:42:20.942Z,1008.84
2018-08-07T03:43:20.969Z,1008.84
2018-08-07T03:44:20.995Z,1008.83
2018-08-07T03:45:21.008Z,1008.83
2018-08-07T03:46:21.046Z,1008.80
2018-08-07T03:47:21.059Z,1008.88
2018-08-07T03:48:21.074Z,1008.86
2018-08-07T03:49:21.178Z,1008.87
2018-08-07T03:50:21.127Z,1008.92
2018-08-07T03:51:21.138Z,1008.89
2018-08-07T03:52:21.164Z,1008.88
2018-08-07T03:53:21.203Z,1008.90
2018-08-07T03:54:21.204Z,1008.90
2018-08-07T03:55:21.231Z,1008.91
2018-08-07T03:56:21.256Z,1008.93
2018-08-07T03:57:21.269Z,1008.94
2018-08-07T03:58:21.295Z,1008.91
2018-08-07T03:59:21.321Z,1008.92
2018-08-07T04:00:21.336Z,1008.93
2018-08-07T04:01:21.361Z,1008.95
2018-08-07T04:02:21.386Z,1008.91
2018-08-07T04:03:21.403Z,1008.91
2018-08-07T04:04:21.426Z,1008.92
2018-08-07T04:05:21.452Z,1008.93
2018-08-07T04:06:21.470Z,1008.93
2018-08-07T04:07:21.491Z,1008.95
2018-08-07T04:08:21.522Z,1008.96
2018-08-07T04:09:21.532Z,1008.96
2018-08-07T04:10:21.556Z,1008.92
2018-08-07T04:11:21.584Z,1008.92
2018-08-07T04:12:21.599Z,1008.90
2018-08-07T04:13:21.622Z,1008.95
2018-08-07T04:14:21.648Z,1008.92
2018-08-07T04:15:21.661Z,1008.89
2018-08-07T04:16:21.687Z,1008.86
2018-08-07T04:17:21.717Z,1008.90
2018-08-07T04:18:21.727Z,1008.86
2018-08-07T04:19:21.753Z,1008.86
2018-08-07T04:20:21.779Z,1008.82
2018-08-07T04:21:21.792Z,1008.81
2018-08-07T04:22:21.822Z,1008.84
2018-08-07T04:23:21.844Z,1008.80
2018-08-07T04:24:21.859Z,1008.83
2018-08-07T04:25:21.884Z,1008.88
2018-08-07T04:26:21.909Z,1008.82
2018-08-07T04:27:21.926Z,1008.82
2018-08-07T04:28:21.957Z,1008.83
2018-08-07T04:29:21.975Z,1008.80
2018-08-07T04:30:21.993Z,1008.81
2018-08-07T04:31:22.016Z,1008.76
2018-08-07T04:32:22.045Z,1008.83
2018-08-07T04:33:22.055Z,1008.84
2018-08-07T04:34:22.132Z,1008.84
2018-08-07T04:35:22.105Z,1008.87
2018-08-07T04:36:22.121Z,1008.85
2018-08-07T04:37:22.149Z,1008.91
2018-08-07T04:38:22.172Z,1008.87
2018-08-07T04:39:22.185Z,1008.88
2018-08-07T04:40:22.211Z,1008.88
2018-08-07T04:41:22.237Z,1008.88
2018-08-07T04:42:22.264Z,1008.84
2018-08-07T04:43:22.277Z,1008.87
2018-08-07T04:44:22.302Z,1008.84
2018-08-07T04:45:22.328Z,1008.85
2018-08-07T04:46:22.342Z,1008.84
2018-08-07T04:47:22.367Z,1008.87
2018-08-07T04:48:22.393Z,1008.91
2018-08-07T04:49:22.407Z,1008.93
2018-08-07T04:50:22.433Z,1008.91
2018-08-07T04:51:22.458Z,1008.84
2018-08-07T04:52:22.471Z,1008.91
2018-08-07T04:53:22.497Z,1008.87
2018-08-07T04:54:22.523Z,1008.95
2018-08-07T04:55:22.538Z,1008.90
2018-08-07T04:56:22.563Z,1008.90
2018-08-07T04:57:22.590Z,1008.92
2018-08-07T04:58:22.615Z,1008.92
2018-08-07T04:59:22.629Z,1008.89
2018-08-07T05:00:22.666Z,1008.92
2018-08-07T05:01:22.685Z,1008.93
2018-08-07T05:02:22.694Z,1008.93
2018-08-07T05:03:22.720Z,1008.90
2018-08-07T05:04:22.746Z,1008.89
2018-08-07T05:05:22.762Z,1008.91
2018-08-07T05:06:22.785Z,1008.88
2018-08-07T05:07:22.811Z,1008.88
2018-08-07T05:08:22.838Z,1008.86
2018-08-07T05:09:22.850Z,1008.85
2018-08-07T05:10:22.926Z,1008.90
2018-08-07T05:11:22.903Z,1008.89
2018-08-07T05:12:22.915Z,1008.87
2018-08-07T05:13:22.942Z,1008.87
2018-08-07T05:14:22.985Z,1008.92
2018-08-07T05:15:22.983Z,1008.91
2018-08-07T05:16:23.009Z,1008.89
2018-08-07T05:17:23.040Z,1008.93
2018-08-07T05:18:23.059Z,1008.93
2018-08-07T05:19:23.073Z,1008.97
2018-08-07T05:20:23.099Z,1008.96
2018-08-07T05:21:23.137Z,1008.95
2018-08-07T05:22:23.145Z,1008.97
2018-08-07T05:23:23.166Z,1008.99
2018-08-07T05:24:23.235Z,1008.97
2018-08-07T05:25:23.216Z,1008.97
2018-08-07T05:26:23.228Z,1008.97
2018-08-07T05:27:23.254Z,1008.97
2018-08-07T05:28:23.284Z,1008.99
2018-08-07T05:29:23.295Z,1008.98
2018-08-07T05:30:23.322Z,1008.99
2018-08-07T05:31:23.347Z,1008.98
2018-08-07T05:32:23.373Z,1008.97
2018-08-07T05:33:23.386Z,1008.97
2018-08-07T05:34:23.425Z,1009.00
2018-08-07T05:35:23.437Z,1009.02
2018-08-07T05:36:23.464Z,1009.04
2018-08-07T05:37:23.478Z,1009.02
2018-08-07T05:38:23.503Z,1009.01
2018-08-07T05:39:23.534Z,1008.99
2018-08-07T05:40:23.543Z,1009.04
2018-08-07T05:41:23.568Z,1008.98
2018-08-07T05:42:23.656Z,1009.03
2018-08-07T05:43:23.620Z,1008.97
2018-08-07T05:44:23.635Z,1009.05
2018-08-07T05:45:23.660Z,1009.04
2018-08-07T05:46:23.686Z,1009.05
2018-08-07T05:47:23.712Z,1009.06
2018-08-07T05:48:23.725Z,1009.04
2018-08-07T05:49:23.752Z,1009.02
2018-08-07T05:50:23.895Z,1009.03
2018-08-07T05:51:23.857Z,1009.05
2018-08-07T05:52:23.817Z,1009.07
2018-08-07T05:53:23.842Z,1009.06
2018-08-07T05:54:23.871Z,1009.03
2018-08-07T05:55:23.896Z,1009.04
2018-08-07T05:56:23.909Z,1008.98
2018-08-07T05:57:23.946Z,1009.02
2018-08-07T05:58:23.961Z,1009.01
2018-08-07T05:59:23.987Z,1009.00
2018-08-07T06:00:24.027Z,1009.03
2018-08-07T06:01:24.026Z,1009.04
2018-08-07T06:02:24.056Z,1009.03
2018-08-07T06:03:24.078Z,1009.04
2018-08-07T06:04:24.104Z,1008.97
2018-08-07T06:05:24.158Z,1008.99
2018-08-07T06:06:24.143Z,1008.96
2018-08-07T06:07:24.168Z,1009.00
2018-08-07T06:08:24.194Z,1009.00
2018-08-07T06:09:24.209Z,1009.01
2018-08-07T06:10:24.234Z,1009.04
2018-08-07T06:11:24.260Z,1009.05
2018-08-07T06:12:24.288Z,1009.05
2018-08-07T06:13:24.312Z,1009.02
2018-08-07T06:14:24.327Z,1008.99
2018-08-07T06:15:24.351Z,1008.95
2018-08-07T06:16:24.377Z,1008.99
2018-08-07T06:17:24.403Z,1009.01
2018-08-07T06:18:24.430Z,1008.96
2018-08-07T06:19:24.443Z,1009.01
2018-08-07T06:20:24.470Z,1009.01
2018-08-07T06:21:24.495Z,1009.01
2018-08-07T06:22:24.522Z,1009.02
2018-08-07T06:23:24.547Z,1009.03
2018-08-07T06:24:24.573Z,1009.08
2018-08-07T06:25:24.587Z,1009.04
2018-08-07T06:26:24.624Z,1009.05
2018-08-07T06:27:24.641Z,1009.04
2018-08-07T06:28:24.666Z,1009.03
2018-08-07T06:29:24.689Z,1009.01
2018-08-07T06:30:24.730Z,1009.06
2018-08-07T06:31:24.825Z,1009.06
2018-08-07T06:32:24.757Z,1009.05
2018-08-07T06:33:24.782Z,1009.06
2018-08-07T06:34:24.807Z,1009.01
2018-08-07T06:35:24.834Z,1009.09
2018-08-07T06:36:24.860Z,1009.07
2018-08-07T06:37:24.887Z,1009.04
2018-08-07T06:38:24.915Z,1009.05
2018-08-07T06:39:24.936Z,1009.04
2018-08-07T06:40:24.963Z,1009.05
2018-08-07T06:41:24.989Z,1008.96
2018-08-07T06:42:25.016Z,1009.01
2018-08-07T06:43:25.042Z,1009.05
2018-08-07T06:44:25.067Z,1009.01
2018-08-07T06:45:25.093Z,1009.05
2018-08-07T06:46:25.131Z,1009.00
2018-08-07T06:47:25.170Z,1009.00
2018-08-07T06:48:25.183Z,1008.98
2018-08-07T06:49:25.230Z,1009.04
2018-08-07T06:50:25.235Z,1009.00
2018-08-07T06:51:25.261Z,1009.03
2018-08-07T06:52:25.289Z,1009.01
2018-08-07T06:53:25.331Z,1008.97
2018-08-07T06:54:25.351Z,1009.03
2018-08-07T06:55:25.379Z,1009.02
2018-08-07T06:56:25.404Z,1009.01
2018-08-07T06:57:25.441Z,1009.03
2018-08-07T06:58:25.467Z,1009.01
2018-08-07T06:59:25.494Z,1008.98
2018-08-07T07:00:25.532Z,1008.99
2018-08-07T07:01:25.558Z,1009.01
2018-08-07T07:02:25.585Z,1008.98
2018-08-07T07:03:25.625Z,1009.02
2018-08-07T07:04:25.648Z,1008.97
2018-08-07T07:05:25.674Z,1008.99
2018-08-07T07:06:25.712Z,1009.00
2018-08-07T07:07:25.739Z,1009.00
2018-08-07T07:08:25.776Z,1008.97
2018-08-07T07:09:25.862Z,1008.96
2018-08-07T07:10:25.841Z,1008.98
2018-08-07T07:11:25.867Z,1008.99
2018-08-07T07:12:25.893Z,1008.95
2018-08-07T07:13:25.933Z,1008.94
2018-08-07T07:14:25.957Z,1008.94
2018-08-07T07:15:25.996Z,1008.94
2018-08-07T07:16:26.023Z,1008.95
2018-08-07T07:17:26.060Z,1008.96
2018-08-07T07:18:26.086Z,1008.92
2018-08-07T07:19:26.124Z,1008.95
2018-08-07T07:20:26.153Z,1008.98
2018-08-07T07:21:26.188Z,1008.96
2018-08-07T07:22:26.217Z,1008.92
2018-08-07T07:23:26.253Z,1008.93
2018-08-07T07:24:26.291Z,1008.93
2018-08-07T07:25:26.317Z,1008.86
2018-08-07T07:26:26.356Z,1008.89
2018-08-07T07:27:26.385Z,1008.87
2018-08-07T07:28:26.421Z,1008.86
2018-08-07T07:29:26.461Z,1008.84
2018-08-07T07:30:26.487Z,1008.84
2018-08-07T07:31:26.536Z,1008.91
2018-08-07T07:32:26.549Z,1008.84
2018-08-07T07:33:26.589Z,1008.88
2018-08-07T07:34:26.657Z,1008.84
2018-08-07T07:35:26.652Z,1008.83
2018-08-07T07:36:26.693Z,1008.83
2018-08-07T07:37:26.730Z,1008.79
2018-08-07T07:38:26.767Z,1008.86
2018-08-07T07:39:26.794Z,1008.81
2018-08-07T07:40:26.832Z,1008.78
2018-08-07T07:41:26.857Z,1008.78
2018-08-07T07:42:26.896Z,1008.78
2018-08-07T07:43:26.935Z,1008.72
2018-08-07T07:44:26.962Z,1008.72
2018-08-07T07:45:27.000Z,1008.76
2018-08-07T07:46:27.038Z,1008.70
2018-08-07T07:47:27.077Z,1008.75
2018-08-07T07:48:27.104Z,1008.73
2018-08-07T07:49:27.143Z,1008.73
2018-08-07T07:50:27.180Z,1008.69
2018-08-07T07:51:27.228Z,1008.73
2018-08-07T07:52:27.256Z,1008.70
2018-08-07T07:53:27.283Z,1008.69
2018-08-07T07:54:27.320Z,1008.67
2018-08-07T07:55:27.360Z,1008.70
2018-08-07T07:56:27.385Z,1008.66
2018-08-07T07:57:27.423Z,1008.65
2018-08-07T07:58:27.462Z,1008.63
2018-08-07T07:59:27.513Z,1008.67
2018-08-07T08:00:27.542Z,1008.67
2018-08-07T08:01:27.577Z,1008.63
2018-08-07T08:02:27.603Z,1008.67
2018-08-07T08:03:27.643Z,1008.64
2018-08-07T08:04:27.680Z,1008.65
2018-08-07T08:05:27.754Z,1008.61
2018-08-07T08:06:27.757Z,1008.63
2018-08-07T08:07:27.796Z,1008.62
2018-08-07T08:08:27.836Z,1008.63
2018-08-07T08:09:27.860Z,1008.64
2018-08-07T08:10:27.899Z,1008.64
2018-08-07T08:11:27.937Z,1008.63
2018-08-07T08:12:27.976Z,1008.63
2018-08-07T08:13:28.015Z,1008.62
2018-08-07T08:14:28.053Z,1008.64
2018-08-07T08:15:28.104Z,1008.59
2018-08-07T08:16:28.148Z,1008.60
2018-08-07T08:17:28.168Z,1008.62
2018-08-07T08:18:28.208Z,1008.58
2018-08-07T08:19:28.245Z,1008.59
2018-08-07T08:20:28.273Z,1008.55
2018-08-07T08:21:28.310Z,1008.50
2018-08-07T08:22:28.348Z,1008.48
2018-08-07T08:23:28.386Z,1008.51
2018-08-07T08:24:28.426Z,1008.49
2018-08-07T08:25:28.464Z,1008.53
2018-08-07T08:26:28.501Z,1008.48
2018-08-07T08:27:28.540Z,1008.52
2018-08-07T08:28:28.591Z,1008.52
2018-08-07T08:29:28.688Z,1008.54
2018-08-07T08:30:28.644Z,1008.59
2018-08-07T08:31:28.681Z,1008.58
2018-08-07T08:32:28.720Z,1008.56
2018-08-07T08:33:28.751Z,1008.57
2018-08-07T08:34:28.784Z,1008.57
2018-08-07T08:35:28.853Z,1008.57
2018-08-07T08:36:28.851Z,1008.56
2018-08-07T08:37:28.887Z,1008.52
2018-08-07T08:38:28.927Z,1008.52
2018-08-07T08:39:28.952Z,1008.51
2018-08-07T08:40:28.989Z,1008.53
2018-08-07T08:41:29.015Z,1008.49
2018-08-07T08:42:29.054Z,1008.49
2018-08-07T08:43:29.080Z,1008.50
2018-08-07T08:44:29.120Z,1008.51
2018-08-07T08:45:29.144Z,1008.52
2018-08-07T08:46:29.183Z,1008.51
2018-08-07T08:47:29.210Z,1008.44
2018-08-07T08:48:29.265Z,1008.43
2018-08-07T08:49:29.273Z,1008.46
2018-08-07T08:50:29.313Z,1008.47
2018-08-07T08:51:29.339Z,1008.47
2018-08-07T08:52:29.377Z,1008.43
2018-08-07T08:53:29.402Z,1008.45
2018-08-07T08:54:29.431Z,1008.50
2018-08-07T08:55:29.466Z,1008.50
2018-08-07T08:56:29.498Z,1008.42
2018-08-07T08:57:29.530Z,1008.39
2018-08-07T08:58:29.558Z,1008.46
2018-08-07T08:59:29.584Z,1008.43
2018-08-07T09:00:29.621Z,1008.44
2018-08-07T09:01:29.648Z,1008.42
2018-08-07T09:02:29.685Z,1008.44
2018-08-07T09:03:29.713Z,1008.40
2018-08-07T09:04:29.739Z,1008.40
2018-08-07T09:05:29.779Z,1008.42
2018-08-07T09:06:29.802Z,1008.41
2018-08-07T09:07:29.840Z,1008.42
2018-08-07T09:08:29.866Z,1008.41
2018-08-07T09:09:29.892Z,1008.41
2018-08-07T09:10:30.041Z,1008.45
2018-08-07T09:11:29.964Z,1008.42
2018-08-07T09:12:29.987Z,1008.40
2018-08-07T09:13:30.022Z,1008.44
2018-08-07T09:14:30.053Z,1008.40
2018-08-07T09:15:30.074Z,1008.39
2018-08-07T09:16:30.112Z,1008.39
2018-08-07T09:17:30.137Z,1008.38
2018-08-07T09:18:30.189Z,1008.36
2018-08-07T09:19:30.229Z,1008.39
2018-08-07T09:20:30.228Z,1008.37
2018-08-07T09:21:30.267Z,1008.37
2018-08-07T09:22:30.292Z,1008.34
2018-08-07T09:23:30.319Z,1008.30
2018-08-07T09:24:30.356Z,1008.33
2018-08-07T09:25:30.497Z,1008.32
2018-08-07T09:26:30.414Z,1008.33
2018-08-07T09:27:30.448Z,1008.33
2018-08-07T09:28:30.474Z,1008.29
2018-08-07T09:29:30.510Z,1008.32
2018-08-07T09:30:30.538Z,1008.32
2018-08-07T09:31:30.564Z,1008.29
2018-08-07T09:32:30.603Z,1008.30
2018-08-07T09:33:30.631Z,1008.27
2018-08-07T09:34:30.654Z,1008.28
2018-08-07T09:35:30.696Z,1008.25
2018-08-07T09:36:30.717Z,1008.23
2018-08-07T09:37:30.744Z,1008.23
2018-08-07T09:38:30.783Z,1008.23
2018-08-07T09:39:30.823Z,1008.20
2018-08-07T09:40:30.834Z,1008.16
2018-08-07T09:41:30.872Z,1008.18
2018-08-07T09:42:30.899Z,1008.17
2018-08-07T09:43:30.938Z,1008.20
2018-08-07T09:44:30.964Z,1008.16
2018-08-07T09:45:30.989Z,1008.17
2018-08-07T09:46:31.096Z,1008.15
2018-08-07T09:47:31.065Z,1008.14
2018-08-07T09:48:31.080Z,1008.09
2018-08-07T09:49:31.119Z,1008.09
2018-08-07T09:50:31.151Z,1008.10
2018-08-07T09:51:31.182Z,1008.06
2018-08-07T09:52:31.209Z,1008.05
2018-08-07T09:53:31.234Z,1008.02
2018-08-07T09:54:31.273Z,1008.04
2018-08-07T09:55:31.298Z,1008.04
2018-08-07T09:56:31.337Z,1007.96
2018-08-07T09:57:31.364Z,1008.03
2018-08-07T09:58:31.394Z,1008.03
2018-08-07T09:59:31.428Z,1008.03
2018-08-07T10:00:31.454Z,1008.01
2018-08-07T10:01:31.492Z,1008.04
2018-08-07T10:02:31.517Z,1008.00
2018-08-07T10:03:31.560Z,1007.99
2018-08-07T10:04:31.594Z,1007.94
2018-08-07T10:05:31.677Z,1007.97
2018-08-07T10:06:31.659Z,1007.94
2018-08-07T10:07:31.686Z,1007.91
2018-08-07T10:08:31.726Z,1007.87
2018-08-07T10:09:31.763Z,1007.85
2018-08-07T10:10:31.800Z,1007.82
2018-08-07T10:11:31.825Z,1007.83
2018-08-07T10:12:31.919Z,1007.80
2018-08-07T10:13:31.903Z,1007.76
2018-08-07T10:14:31.943Z,1007.78
2018-08-07T10:15:31.982Z,1007.78
2018-08-07T10:16:32.006Z,1007.74
2018-08-07T10:17:32.044Z,1007.75
2018-08-07T10:18:32.083Z,1007.76
2018-08-07T10:19:32.124Z,1007.78
2018-08-07T10:20:32.160Z,1007.78
2018-08-07T10:21:32.199Z,1007.75
2018-08-07T10:22:32.236Z,1007.79
2018-08-07T10:23:32.276Z,1007.79
2018-08-07T10:24:32.313Z,1007.76
2018-08-07T10:25:32.352Z,1007.74
2018-08-07T10:26:32.389Z,1007.72
2018-08-07T10:27:32.430Z,1007.71
2018-08-07T10:28:32.467Z,1007.69
2018-08-07T10:29:32.506Z,1007.69
2018-08-07T10:30:32.550Z,1007.65
2018-08-07T10:31:32.582Z,1007.66
2018-08-07T10:32:32.621Z,1007.68
2018-08-07T10:33:32.672Z,1007.62
2018-08-07T10:34:32.711Z,1007.62
2018-08-07T10:35:32.749Z,1007.60
2018-08-07T10:36:32.789Z,1007.60
2018-08-07T10:37:32.838Z,1007.60
2018-08-07T10:38:32.877Z,1007.54
2018-08-07T10:39:32.919Z,1007.46
2018-08-07T10:40:33.022Z,1007.53
2018-08-07T10:41:33.004Z,1007.49
2018-08-07T10:42:33.045Z,1007.52
2018-08-07T10:43:33.203Z,1007.52
2018-08-07T10:44:33.132Z,1007.52
2018-08-07T10:45:33.182Z,1007.47
2018-08-07T10:46:33.308Z,1007.48
2018-08-07T10:47:33.298Z,1007.51
2018-08-07T10:48:33.312Z,1007.53
2018-08-07T10:49:33.352Z,1007.53
2018-08-07T10:50:33.388Z,1007.50
2018-08-07T10:51:33.439Z,1007.48
2018-08-07T10:52:33.478Z,1007.44
2018-08-07T10:53:33.540Z,1007.42
2018-08-07T10:54:33.567Z,1007.41
2018-08-07T10:55:33.618Z,1007.39
2018-08-07T10:56:33.689Z,1007.36
2018-08-07T10:57:33.708Z,1007.33
2018-08-07T10:58:33.745Z,1007.33
2018-08-07T10:59:33.809Z,1007.30
2018-08-07T11:00:33.842Z,1007.30
2018-08-07T11:01:33.886Z,1007.30
2018-08-07T11:02:33.924Z,1007.28
2018-08-07T11:03:33.975Z,1007.27
2018-08-07T11:04:34.014Z,1007.26
2018-08-07T11:05:34.065Z,1007.27
2018-08-07T11:06:34.117Z,1007.23
2018-08-07T11:07:34.155Z,1007.25
2018-08-07T11:08:34.206Z,1007.24
2018-08-07T11:09:34.245Z,1007.18
2018-08-07T11:10:34.295Z,1007.24
2018-08-07T11:11:34.347Z,1007.18
2018-08-07T11:12:34.385Z,1007.21
2018-08-07T11:13:34.450Z,1007.22
2018-08-07T11:14:34.474Z,1007.18
2018-08-07T11:15:34.527Z,1007.17
2018-08-07T11:16:34.579Z,1007.14
2018-08-07T11:17:34.614Z,1007.15
2018-08-07T11:18:34.664Z,1007.17
2018-08-07T11:19:34.716Z,1007.18
2018-08-07T11:20:34.754Z,1007.19
2018-08-07T11:21:34.806Z,1007.17
2018-08-07T11:22:34.857Z,1007.15
2018-08-07T11:23:34.895Z,1007.16
2018-08-07T11:24:34.984Z,1007.14
2018-08-07T11:25:34.996Z,1007.12
2018-08-07T11:26:35.038Z,1007.12
2018-08-07T11:27:35.086Z,1007.14
2018-08-07T11:28:35.137Z,1007.11
2018-08-07T11:29:35.176Z,1007.11
2018-08-07T11:30:35.226Z,1007.10
2018-08-07T11:31:35.276Z,1007.09
2018-08-07T11:32:35.316Z,1007.10
2018-08-07T11:33:35.368Z,1007.13
2018-08-07T11:34:35.419Z,1007.10
2018-08-07T11:35:35.458Z,1007.13
2018-08-07T11:36:35.509Z,1007.12
2018-08-07T11:37:35.560Z,1007.11
2018-08-07T11:38:35.609Z,1007.12
2018-08-07T11:39:35.649Z,1007.11
2018-08-07T11:40:35.700Z,1007.09
2018-08-07T11:41:35.756Z,1007.08
2018-08-07T11:42:35.789Z,1007.05
2018-08-07T11:43:35.839Z,1007.02
2018-08-07T11:44:35.889Z,1007.03
2018-08-07T11:45:35.942Z,1006.97
2018-08-07T11:46:35.981Z,1007.01
2018-08-07T11:47:36.031Z,1006.95
2018-08-07T11:48:36.082Z,1006.94
2018-08-07T11:49:36.134Z,1006.93
2018-08-07T11:50:36.172Z,1006.91
2018-08-07T11:51:36.221Z,1006.89
2018-08-07T11:52:36.272Z,1006.88
2018-08-07T11:53:36.313Z,1006.85
2018-08-07T11:54:36.363Z,1006.90
2018-08-07T11:55:36.414Z,1006.84
2018-08-07T11:56:36.465Z,1006.85
2018-08-07T11:57:36.502Z,1006.82
2018-08-07T11:58:36.553Z,1006.79
2018-08-07T11:59:36.604Z,1006.76
2018-08-07T12:00:36.643Z,1006.80
2018-08-07T12:01:36.694Z,1006.78
2018-08-07T12:02:36.745Z,1006.79
2018-08-07T12:03:36.796Z,1006.76
2018-08-07T12:04:36.834Z,1006.77
2018-08-07T12:05:36.884Z,1006.80